< < Back
Terminal Aerodrome Forecast


Current Version              Previous Versions:   1  2  3  4  5  6  7  8  9  

Terminal Aerodrome Forecast

491
FTUS44 KBMX 291737
TAFANB
TAF
KANB 291737Z 2918/3018 32006KT P6SM SCT050
     FM300100 00000KT P6SM SKC
      TEMPO 3010/3013 4SM BR
     FM301500 35006KT P6SM SKC=

Latest METAR

677
SAUS70 KWBC 300800 RRB
MTRANB
METAR KANB 300753Z AUTO 00000KT 10SM CLR 19/18 A3002 RMK AO2 SLP156
T01940178


USA.gov is the U.S. government's official web portal to all federal, state and local government web resources and services.